Freestyle — WDI3379 — position and weather

sailwx.info

Track history (hours):
 
Tides and Currents Weather Stations Pressure Air Temp Water Temp Dewpoint Dewpoint Depression Visibility Wind Speed Wind Dir Waves Ship Positions

Freestyle

Owner: Derrington Jr., James H, Alexandria, VA. More information available from US FCC via Universal Licensing System.

Last reported at 2017-Nov-16 15:01 UTC. Time now 2017-Nov-21 19:23 UTC.
Position N 34°37' W 076°44'.

Length 17 m.

Type: Pleasure craft. MMSI: 367687720.

Date/timePositionNaut miles runAvg speedWind from/ knotsBaromVisibWave heightAir tempDewpointWater temp
2017-Nov-16 15:01N 34°37' W 076°44'028.5
2017-Nov-16 15:00N 34°37' W 076°44'712.0
2017-Nov-16 14:28N 34°43' W 076°40'0 0.0
2017-Nov-16 13:58N 34°43' W 076°40'0 0.0
2017-Nov-16 13:28N 34°43' W 076°40'0 0.0
2017-Nov-16 12:58N 34°43' W 076°40'0 0.0
2017-Nov-16 12:28N 34°43' W 076°40'0 0.0
2017-Nov-16 11:58N 34°43' W 076°40'0 0.0
2017-Nov-16 11:28N 34°43' W 076°40'0 0.0
2017-Nov-16 10:58N 34°43' W 076°40'0 0.0
2017-Nov-16 10:28N 34°43' W 076°40'0 0.0
2017-Nov-16 09:58N 34°43' W 076°40'0 0.0
2017-Nov-16 09:28N 34°43' W 076°40'0 0.0
2017-Nov-16 08:58N 34°43' W 076°40'0 0.0
2017-Nov-16 08:28N 34°43' W 076°40'0 0.0
2017-Nov-16 07:55N 34°43' W 076°40'0 0.0
2017-Nov-16 07:28N 34°43' W 076°40'0 0.0
2017-Nov-16 06:58N 34°43' W 076°40'0 0.0
2017-Nov-16 06:28N 34°43' W 076°40'0 0.0
2017-Nov-16 05:58N 34°43' W 076°40'0 0.0
2017-Nov-16 05:28N 34°43' W 076°40'0 0.0
2017-Nov-16 04:58N 34°43' W 076°40'0 0.0
2017-Nov-16 04:28N 34°43' W 076°40'0 0.0
2017-Nov-16 03:58N 34°43' W 076°40'0 0.0
2017-Nov-16 03:28N 34°43' W 076°40'0 0.0
2017-Nov-16 02:58N 34°43' W 076°40'0 0.0
2017-Nov-16 02:28N 34°43' W 076°40'0 0.0
2017-Nov-16 01:58N 34°43' W 076°40'0 0.0
2017-Nov-16 01:28N 34°43' W 076°40'0 0.0
2017-Nov-16 00:58N 34°43' W 076°40'0 0.0
2017-Nov-16 00:25N 34°43' W 076°40'0 0.0
2017-Nov-15 23:58N 34°43' W 076°40'0 0.0
2017-Nov-15 23:28N 34°43' W 076°40'0 0.0
2017-Nov-15 22:58N 34°43' W 076°40'0 0.0
2017-Nov-15 22:28N 34°43' W 076°40'0 0.0
2017-Nov-15 21:58N 34°43' W 076°40'0 0.0
2017-Nov-15 21:28N 34°43' W 076°40'0 0.0
2017-Nov-15 20:58N 34°43' W 076°40'0 0.0
2017-Nov-15 20:28N 34°43' W 076°40'1 1.2
2017-Nov-15 20:00N 34°43' W 076°41'3 5.6
2017-Nov-15 19:30N 34°46' W 076°41'510.6
2017-Nov-15 19:00N 34°51' W 076°41'116 4.2
2017-Nov-14 15:23N 36°45' W 076°18'1 3.3
2017-Nov-14 14:59N 36°47' W 076°18'1 1.9
2017-Nov-14 14:30N 36°47' W 076°18'3 5.6
2017-Nov-14 13:57N 36°51' W 076°18'0 0.1
2017-Nov-14 13:27N 36°50' W 076°18'0 0.0
2017-Nov-14 12:57N 36°50' W 076°18'0 0.0
2017-Nov-14 12:30N 36°50' W 076°18'0 0.0
2017-Nov-14 12:00N 36°50' W 076°18'0 0.0
2017-Nov-14 11:30N 36°50' W 076°18'0 0.0
2017-Nov-14 11:00N 36°50' W 076°18'0 0.0
2017-Nov-14 10:30N 36°50' W 076°18'0 0.0
2017-Nov-14 10:00N 36°50' W 076°18'0 0.0
2017-Nov-14 09:30N 36°50' W 076°18'0 0.0
2017-Nov-14 09:00N 36°50' W 076°18'0 0.0
2017-Nov-14 08:28N 36°50' W 076°18'0 0.0
2017-Nov-14 07:58N 36°50' W 076°18'0 0.0
2017-Nov-14 07:28N 36°50' W 076°18'0 0.0
2017-Nov-14 06:58N 36°50' W 076°18'0 0.0
2017-Nov-14 06:28N 36°50' W 076°18'0 0.0
2017-Nov-14 05:58N 36°50' W 076°18'0 0.0
2017-Nov-14 05:28N 36°50' W 076°18'0 0.0
2017-Nov-14 04:58N 36°50' W 076°18'0 0.0
2017-Nov-14 04:28N 36°50' W 076°18'0 0.0
2017-Nov-14 03:58N 36°50' W 076°18'0 0.0
2017-Nov-14 03:28N 36°50' W 076°18'0 0.0
2017-Nov-14 02:58N 36°50' W 076°18'0 0.0
2017-Nov-14 02:28N 36°50' W 076°18'0 0.0
2017-Nov-14 01:58N 36°50' W 076°18'0 0.0
2017-Nov-14 01:28N 36°50' W 076°18'0 0.0
2017-Nov-14 00:58N 36°50' W 076°18'0 0.0
2017-Nov-14 00:28N 36°50' W 076°18'0 0.0
2017-Nov-13 23:55N 36°50' W 076°18'0 0.0
2017-Nov-13 23:25N 36°50' W 076°18'0 0.0
2017-Nov-13 22:58N 36°50' W 076°18'0 0.0
2017-Nov-13 22:25N 36°50' W 076°18'0 0.0
2017-Nov-13 21:55N 36°50' W 076°18'  
Track history (hours):
 
Tides and Currents Weather Stations Pressure Air Temp Water Temp Dewpoint Dewpoint Depression Visibility Wind Speed Wind Dir Waves Ship Positions

Freestyle

Owner: Derrington Jr., James H, Alexandria, VA. More information available from US FCC via Universal Licensing System.

Last reported at 2017-Nov-16 15:01 UTC. Time now 2017-Nov-21 19:23 UTC.
Position N 34°37' W 076°44'.

Length 17 m.

Type: Pleasure craft. MMSI: 367687720.

Date/timePositionNaut miles runAvg speedWind from/ knotsBaromVisibWave heightAir tempDewpointWater temp
2017-Nov-16 15:01N 34°37' W 076°44'028.5
2017-Nov-16 15:00N 34°37' W 076°44'712.0
2017-Nov-16 14:28N 34°43' W 076°40'0 0.0
2017-Nov-16 13:58N 34°43' W 076°40'0 0.0
2017-Nov-16 13:28N 34°43' W 076°40'0 0.0
2017-Nov-16 12:58N 34°43' W 076°40'0 0.0
2017-Nov-16 12:28N 34°43' W 076°40'0 0.0
2017-Nov-16 11:58N 34°43' W 076°40'0 0.0
2017-Nov-16 11:28N 34°43' W 076°40'0 0.0
2017-Nov-16 10:58N 34°43' W 076°40'0 0.0
2017-Nov-16 10:28N 34°43' W 076°40'0 0.0
2017-Nov-16 09:58N 34°43' W 076°40'0 0.0
2017-Nov-16 09:28N 34°43' W 076°40'0 0.0
2017-Nov-16 08:58N 34°43' W 076°40'0 0.0
2017-Nov-16 08:28N 34°43' W 076°40'0 0.0
2017-Nov-16 07:55N 34°43' W 076°40'0 0.0
2017-Nov-16 07:28N 34°43' W 076°40'0 0.0
2017-Nov-16 06:58N 34°43' W 076°40'0 0.0
2017-Nov-16 06:28N 34°43' W 076°40'0 0.0
2017-Nov-16 05:58N 34°43' W 076°40'0 0.0
2017-Nov-16 05:28N 34°43' W 076°40'0 0.0
2017-Nov-16 04:58N 34°43' W 076°40'0 0.0
2017-Nov-16 04:28N 34°43' W 076°40'0 0.0
2017-Nov-16 03:58N 34°43' W 076°40'0 0.0
2017-Nov-16 03:28N 34°43' W 076°40'0 0.0
2017-Nov-16 02:58N 34°43' W 076°40'0 0.0
2017-Nov-16 02:28N 34°43' W 076°40'0 0.0
2017-Nov-16 01:58N 34°43' W 076°40'0 0.0
2017-Nov-16 01:28N 34°43' W 076°40'0 0.0
2017-Nov-16 00:58N 34°43' W 076°40'0 0.0
2017-Nov-16 00:25N 34°43' W 076°40'0 0.0
2017-Nov-15 23:58N 34°43' W 076°40'0 0.0
2017-Nov-15 23:28N 34°43' W 076°40'0 0.0
2017-Nov-15 22:58N 34°43' W 076°40'0 0.0
2017-Nov-15 22:28N 34°43' W 076°40'0 0.0
2017-Nov-15 21:58N 34°43' W 076°40'0 0.0
2017-Nov-15 21:28N 34°43' W 076°40'0 0.0
2017-Nov-15 20:58N 34°43' W 076°40'0 0.0
2017-Nov-15 20:28N 34°43' W 076°40'1 1.2
2017-Nov-15 20:00N 34°43' W 076°41'3 5.6
2017-Nov-15 19:30N 34°46' W 076°41'510.6
2017-Nov-15 19:00N 34°51' W 076°41'116 4.2
2017-Nov-14 15:23N 36°45' W 076°18'1 3.3
2017-Nov-14 14:59N 36°47' W 076°18'1 1.9
2017-Nov-14 14:30N 36°47' W 076°18'3 5.6
2017-Nov-14 13:57N 36°51' W 076°18'0 0.1
2017-Nov-14 13:27N 36°50' W 076°18'0 0.0
2017-Nov-14 12:57N 36°50' W 076°18'0 0.0
2017-Nov-14 12:30N 36°50' W 076°18'0 0.0
2017-Nov-14 12:00N 36°50' W 076°18'0 0.0
2017-Nov-14 11:30N 36°50' W 076°18'0 0.0
2017-Nov-14 11:00N 36°50' W 076°18'0 0.0
2017-Nov-14 10:30N 36°50' W 076°18'0 0.0
2017-Nov-14 10:00N 36°50' W 076°18'0 0.0
2017-Nov-14 09:30N 36°50' W 076°18'0 0.0
2017-Nov-14 09:00N 36°50' W 076°18'0 0.0
2017-Nov-14 08:28N 36°50' W 076°18'0 0.0
2017-Nov-14 07:58N 36°50' W 076°18'0 0.0
2017-Nov-14 07:28N 36°50' W 076°18'0 0.0
2017-Nov-14 06:58N 36°50' W 076°18'0 0.0
2017-Nov-14 06:28N 36°50' W 076°18'0 0.0
2017-Nov-14 05:58N 36°50' W 076°18'0 0.0
2017-Nov-14 05:28N 36°50' W 076°18'0 0.0
2017-Nov-14 04:58N 36°50' W 076°18'0 0.0
2017-Nov-14 04:28N 36°50' W 076°18'0 0.0
2017-Nov-14 03:58N 36°50' W 076°18'0 0.0
2017-Nov-14 03:28N 36°50' W 076°18'0 0.0
2017-Nov-14 02:58N 36°50' W 076°18'0 0.0
2017-Nov-14 02:28N 36°50' W 076°18'0 0.0
2017-Nov-14 01:58N 36°50' W 076°18'0 0.0
2017-Nov-14 01:28N 36°50' W 076°18'0 0.0
2017-Nov-14 00:58N 36°50' W 076°18'0 0.0
2017-Nov-14 00:28N 36°50' W 076°18'0 0.0
2017-Nov-13 23:55N 36°50' W 076°18'0 0.0
2017-Nov-13 23:25N 36°50' W 076°18'0 0.0
2017-Nov-13 22:58N 36°50' W 076°18'0 0.0
2017-Nov-13 22:25N 36°50' W 076°18'0 0.0
2017-Nov-13 21:55N 36°50' W 076°18'  

Dump ship's entire track history